createdAt,value
2022-12-08T06:56:21.737Z,128.00
2022-12-08T06:57:22.636Z,144.00
2022-12-08T06:58:24.640Z,160.00
2022-12-08T06:59:26.678Z,176.00
2022-12-08T07:00:28.677Z,192.00
2022-12-08T07:01:30.720Z,204.00
2022-12-08T07:02:32.732Z,220.00
2022-12-08T07:03:34.737Z,236.00
2022-12-08T07:04:36.740Z,252.00
2022-12-08T07:05:38.749Z,276.00
2022-12-08T07:06:40.767Z,304.00
2022-12-08T07:07:42.822Z,324.00
2022-12-08T07:08:44.803Z,340.00
2022-12-08T07:09:46.804Z,356.00
2022-12-08T07:10:48.824Z,376.00
2022-12-08T07:11:50.831Z,400.00
2022-12-08T07:13:01.907Z,420.00
2022-12-08T07:13:54.001Z,436.00
2022-12-08T07:14:56.023Z,444.00
2022-12-08T07:15:58.045Z,468.00
2022-12-08T07:17:00.112Z,484.00
2022-12-08T07:18:02.140Z,480.00
2022-12-08T07:19:04.147Z,460.00
2022-12-08T07:20:06.619Z,428.00
2022-12-08T07:21:07.720Z,396.00
2022-12-08T07:22:09.698Z,364.00
2022-12-08T07:23:11.698Z,360.00
2022-12-08T07:24:13.701Z,376.00
2022-12-08T07:25:15.696Z,416.00
2022-12-08T07:26:17.724Z,488.00
2022-12-08T07:27:19.746Z,552.00
2022-12-08T07:28:21.747Z,580.00
2022-12-08T07:29:26.379Z,588.00
2022-12-08T07:30:25.369Z,608.00
2022-12-08T07:31:26.410Z,640.00
2022-12-08T07:32:28.401Z,640.00
2022-12-08T07:33:30.408Z,660.00
2022-12-08T07:34:32.437Z,704.00
2022-12-08T07:35:35.366Z,772.00
2022-12-08T07:36:36.345Z,832.00
2022-12-08T07:37:38.330Z,880.00
2022-12-08T07:38:40.329Z,952.00
2022-12-08T07:39:42.352Z,1000.00
2022-12-08T07:40:44.385Z,1084.00
2022-12-08T07:41:46.381Z,1200.00
2022-12-08T07:42:48.390Z,1312.00
2022-12-08T07:43:50.382Z,1356.00
2022-12-08T07:44:52.393Z,1364.00
2022-12-08T07:45:54.478Z,1412.00
2022-12-08T07:46:56.482Z,1436.00
2022-12-08T07:47:58.493Z,1356.00
2022-12-08T07:49:00.472Z,1344.00
2022-12-08T07:50:02.730Z,1380.00
2022-12-08T07:51:03.771Z,1512.00
2022-12-08T07:52:05.760Z,1852.00
2022-12-08T07:53:07.764Z,2180.00
2022-12-08T07:54:09.764Z,2208.00
2022-12-08T07:55:11.763Z,2048.00
2022-12-08T07:56:13.768Z,1752.00
2022-12-08T07:57:15.786Z,1584.00
2022-12-08T07:58:17.805Z,1676.00
2022-12-08T07:59:19.803Z,1772.00
2022-12-08T08:00:21.818Z,1672.00
2022-12-08T08:01:24.062Z,1744.00
2022-12-08T08:02:26.204Z,2004.00
2022-12-08T08:03:26.234Z,2000.00
2022-12-08T08:04:28.335Z,1880.00
2022-12-08T08:05:30.346Z,1888.00
2022-12-08T08:06:32.407Z,1940.00
2022-12-08T08:07:34.408Z,2320.00
2022-12-08T08:08:36.400Z,2760.00
2022-12-08T08:09:38.557Z,2660.00
2022-12-08T08:10:40.558Z,2576.00
2022-12-08T08:11:43.032Z,2476.00
2022-12-08T08:12:43.948Z,2600.00
2022-12-08T08:13:45.944Z,2688.00
2022-12-08T08:14:47.946Z,2788.00
2022-12-08T08:15:50.035Z,2872.00
2022-12-08T08:16:52.180Z,2892.00
2022-12-08T08:17:54.186Z,2976.00
2022-12-08T08:18:56.180Z,3088.00
2022-12-08T08:19:58.179Z,3312.00
2022-12-08T08:21:06.727Z,3552.00
2022-12-08T08:22:01.600Z,3728.00
2022-12-08T08:23:03.625Z,3972.00
2022-12-08T08:24:05.616Z,4440.00
2022-12-08T08:25:07.648Z,4796.00
2022-12-08T08:26:09.661Z,5020.00
2022-12-08T08:27:11.685Z,4920.00
2022-12-08T08:28:13.680Z,4620.00
2022-12-08T08:29:15.685Z,4548.00
2022-12-08T08:30:20.799Z,4204.00
2022-12-08T08:31:19.917Z,4044.00
2022-12-08T08:32:21.895Z,4040.00
2022-12-08T08:33:23.905Z,3980.00
2022-12-08T08:34:25.898Z,3568.00
2022-12-08T08:35:27.918Z,3124.00
2022-12-08T08:36:29.907Z,2904.00
2022-12-08T08:37:31.940Z,2684.00
2022-12-08T08:38:33.958Z,2756.00
2022-12-08T08:39:35.951Z,2736.00
2022-12-08T08:40:37.971Z,2740.00
2022-12-08T08:41:39.973Z,2788.00
2022-12-08T08:42:41.998Z,2940.00
2022-12-08T08:43:44.015Z,3288.00
2022-12-08T08:44:46.021Z,3800.00
2022-12-08T08:45:48.022Z,4376.00
2022-12-08T08:46:50.136Z,4836.00
2022-12-08T08:47:52.197Z,5168.00
2022-12-08T08:48:54.194Z,5536.00
2022-12-08T08:49:56.216Z,5880.00
2022-12-08T08:50:58.235Z,6228.00
2022-12-08T08:52:01.123Z,6548.00
2022-12-08T08:53:02.049Z,6972.00
2022-12-08T08:54:04.072Z,7472.00
2022-12-08T08:55:06.067Z,7860.00
2022-12-08T08:56:08.065Z,7912.00
2022-12-08T08:57:10.059Z,7524.00
2022-12-08T08:58:12.087Z,6836.00
2022-12-08T08:59:14.153Z,6040.00
2022-12-08T09:00:16.172Z,5320.00
2022-12-08T09:01:18.203Z,4716.00
2022-12-08T09:02:20.258Z,4288.00
2022-12-08T09:03:22.311Z,4188.00
2022-12-08T09:04:24.435Z,4408.00
2022-12-08T09:05:26.432Z,4720.00
2022-12-08T09:06:28.704Z,5048.00
2022-12-08T09:07:29.713Z,5072.00
2022-12-08T09:08:31.832Z,5036.00
2022-12-08T09:09:33.828Z,5144.00
2022-12-08T09:10:35.839Z,5448.00
2022-12-08T09:11:37.837Z,5768.00
2022-12-08T09:12:39.839Z,5976.00
2022-12-08T09:13:41.858Z,6076.00
2022-12-08T09:14:43.859Z,6084.00
2022-12-08T09:15:45.938Z,6040.00
2022-12-08T09:16:48.019Z,5896.00
2022-12-08T09:17:50.036Z,5724.00
2022-12-08T09:18:52.088Z,5584.00
2022-12-08T09:19:54.113Z,5456.00
2022-12-08T09:20:56.119Z,5360.00
2022-12-08T09:21:58.166Z,5184.00
2022-12-08T09:23:00.188Z,5084.00
2022-12-08T09:24:02.253Z,5120.00
2022-12-08T09:25:04.295Z,5196.00
2022-12-08T09:26:06.290Z,5288.00
2022-12-08T09:27:08.313Z,5412.00
2022-12-08T09:28:10.333Z,5568.00
2022-12-08T09:29:12.344Z,5696.00
2022-12-08T09:30:14.345Z,5876.00
2022-12-08T09:31:16.411Z,6192.00
2022-12-08T09:32:18.391Z,6556.00
2022-12-08T09:33:20.383Z,6788.00
2022-12-08T09:34:22.398Z,6788.00
2022-12-08T09:35:24.405Z,6512.00
2022-12-08T09:36:26.387Z,6024.00
2022-12-08T09:37:28.390Z,5452.00
2022-12-08T09:38:30.393Z,4936.00
2022-12-08T09:39:32.534Z,4532.00
2022-12-08T09:40:34.503Z,4200.00
2022-12-08T09:41:41.798Z,3920.00
2022-12-08T09:42:37.960Z,3668.00
2022-12-08T09:43:39.994Z,3408.00
2022-12-08T09:44:42.044Z,3124.00
2022-12-08T09:45:44.066Z,2900.00
2022-12-08T09:46:46.120Z,2804.00
2022-12-08T09:47:48.129Z,2856.00
2022-12-08T09:48:50.120Z,3048.00
2022-12-08T09:49:52.129Z,3340.00
2022-12-08T09:50:54.147Z,3668.00
2022-12-08T09:51:56.166Z,4000.00
2022-12-08T09:52:58.191Z,4312.00
2022-12-08T09:54:00.209Z,4608.00
2022-12-08T09:55:02.247Z,4864.00
2022-12-08T09:56:04.250Z,5104.00
2022-12-08T09:57:06.273Z,5408.00
2022-12-08T09:58:08.301Z,5772.00
2022-12-08T09:59:10.305Z,6136.00
2022-12-08T10:00:12.400Z,6372.00
2022-12-08T10:01:14.438Z,6372.00
2022-12-08T10:02:16.465Z,6196.00
2022-12-08T10:03:18.485Z,5896.00
2022-12-08T10:04:20.530Z,5560.00
2022-12-08T10:05:22.700Z,5184.00
2022-12-08T10:06:24.697Z,4968.00
2022-12-08T10:07:26.692Z,4944.00
2022-12-08T10:08:28.824Z,4972.00
2022-12-08T10:09:30.818Z,4904.00
2022-12-08T10:10:32.839Z,4816.00
2022-12-08T10:11:34.840Z,4736.00
2022-12-08T10:12:36.863Z,4740.00
2022-12-08T10:13:38.879Z,4896.00
2022-12-08T10:14:40.906Z,5092.00
2022-12-08T10:15:42.988Z,5280.00
2022-12-08T10:16:45.032Z,5500.00
2022-12-08T10:17:47.034Z,5704.00
2022-12-08T10:18:49.054Z,5860.00
2022-12-08T10:19:51.190Z,5976.00
2022-12-08T10:20:53.196Z,6044.00
2022-12-08T10:21:55.217Z,6036.00
2022-12-08T10:22:57.227Z,6124.00
2022-12-08T10:23:59.236Z,6236.00
2022-12-08T10:25:01.236Z,6420.00
2022-12-08T10:26:03.269Z,6800.00
2022-12-08T10:27:05.285Z,7276.00
2022-12-08T10:28:07.290Z,7664.00
2022-12-08T10:29:09.272Z,7780.00
2022-12-08T10:30:11.294Z,7620.00
2022-12-08T10:31:13.404Z,7372.00
2022-12-08T10:32:15.362Z,7084.00
2022-12-08T10:33:17.417Z,6832.00
2022-12-08T10:34:19.415Z,6744.00
2022-12-08T10:35:21.418Z,6836.00
2022-12-08T10:36:24.068Z,6816.00
2022-12-08T10:37:24.966Z,6908.00
2022-12-08T10:38:26.965Z,7052.00
2022-12-08T10:39:28.988Z,7252.00
2022-12-08T10:40:30.992Z,7592.00
2022-12-08T10:41:33.057Z,7544.00
2022-12-08T10:42:35.055Z,7436.00
2022-12-08T10:43:37.082Z,7716.00
2022-12-08T10:44:39.078Z,7824.00
2022-12-08T10:45:41.066Z,8192.00
2022-12-08T10:46:43.203Z,8568.00
2022-12-08T10:47:46.489Z,8600.00
2022-12-08T10:48:46.511Z,8588.00
2022-12-08T10:49:48.514Z,8800.00
2022-12-08T10:50:50.524Z,8500.00
2022-12-08T10:51:52.559Z,9356.00
2022-12-08T10:52:54.638Z,11720.00
2022-12-08T10:53:56.665Z,9064.00
2022-12-08T10:54:58.679Z,10496.00
2022-12-08T10:56:00.700Z,10940.00
2022-12-08T10:57:02.719Z,8852.00
2022-12-08T10:58:04.737Z,7740.00
2022-12-08T10:59:06.750Z,7448.00
2022-12-08T11:00:13.853Z,7016.00
2022-12-08T11:01:10.236Z,7396.00
2022-12-08T11:02:12.354Z,7352.00
2022-12-08T11:03:13.381Z,7264.00
2022-12-08T11:04:15.384Z,7256.00
2022-12-08T11:05:17.402Z,7304.00
2022-12-08T11:06:19.430Z,7108.00
2022-12-08T11:07:21.491Z,7416.00
2022-12-08T11:08:23.591Z,7860.00
2022-12-08T11:09:25.614Z,8108.00
2022-12-08T11:10:27.614Z,7720.00
2022-12-08T11:11:29.753Z,8148.00
2022-12-08T11:12:31.719Z,8512.00
2022-12-08T11:13:33.720Z,8440.00
2022-12-08T11:14:35.724Z,8268.00
2022-12-08T11:15:37.748Z,8024.00
2022-12-08T11:16:39.871Z,7900.00
2022-12-08T11:17:41.975Z,8080.00
2022-12-08T11:18:43.973Z,8364.00
2022-12-08T11:19:45.992Z,8416.00
2022-12-08T11:20:48.013Z,8684.00
2022-12-08T11:21:50.022Z,9020.00
2022-12-08T11:22:52.036Z,8796.00
2022-12-08T11:23:54.027Z,8192.00
2022-12-08T11:24:56.044Z,7496.00
2022-12-08T11:25:58.052Z,7316.00
2022-12-08T11:27:00.096Z,7620.00
2022-12-08T11:28:02.143Z,8272.00
2022-12-08T11:29:04.171Z,7716.00
2022-12-08T11:30:09.847Z,7172.00
2022-12-08T11:31:07.631Z,7284.00
2022-12-08T11:32:09.674Z,7180.00
2022-12-08T11:33:11.686Z,6724.00
2022-12-08T11:34:13.697Z,6012.00
2022-12-08T11:35:15.699Z,5540.00
2022-12-08T11:36:17.752Z,5256.00
2022-12-08T11:37:19.802Z,4768.00
2022-12-08T11:38:22.589Z,4532.00
2022-12-08T11:39:23.733Z,4352.00
2022-12-08T11:40:25.694Z,4096.00
2022-12-08T11:41:27.702Z,3876.00
2022-12-08T11:42:29.711Z,3800.00
2022-12-08T11:43:31.754Z,3760.00
2022-12-08T11:44:33.760Z,3376.00
2022-12-08T11:45:35.877Z,3092.00
2022-12-08T11:46:37.904Z,2932.00
2022-12-08T11:47:39.905Z,3036.00
2022-12-08T11:48:41.940Z,3208.00
2022-12-08T11:49:43.958Z,3200.00
2022-12-08T11:50:45.999Z,3296.00
2022-12-08T11:51:47.988Z,3152.00
2022-12-08T11:52:50.004Z,2804.00
2022-12-08T11:53:52.014Z,2856.00
2022-12-08T11:54:54.033Z,2848.00
2022-12-08T11:55:56.076Z,3324.00
2022-12-08T11:56:58.129Z,4712.00
2022-12-08T11:58:00.265Z,5884.00
2022-12-08T11:59:02.302Z,5484.00
2022-12-08T12:00:04.691Z,3956.00
2022-12-08T12:01:05.685Z,3004.00
2022-12-08T12:02:07.757Z,2544.00
2022-12-08T12:03:09.869Z,2440.00
2022-12-08T12:04:11.871Z,2668.00
2022-12-08T12:05:15.364Z,3224.00
2022-12-08T12:06:38.121Z,3228.00
2022-12-08T12:07:21.636Z,2752.00
2022-12-08T12:08:18.980Z,2280.00
2022-12-08T12:09:20.990Z,1984.00
2022-12-08T12:10:23.013Z,1992.00
2022-12-08T12:11:25.177Z,2092.00
2022-12-08T12:12:27.155Z,2240.00
2022-12-08T12:13:29.174Z,2072.00
2022-12-08T12:14:31.186Z,1844.00
2022-12-08T12:15:33.204Z,1708.00
2022-12-08T12:16:35.279Z,1736.00
2022-12-08T12:17:46.760Z,1856.00
2022-12-08T12:18:38.832Z,1780.00
2022-12-08T12:19:40.854Z,1568.00
2022-12-08T12:20:42.854Z,1368.00
2022-12-08T12:21:44.829Z,1344.00
2022-12-08T12:22:46.831Z,1380.00
2022-12-08T12:23:48.854Z,1480.00
2022-12-08T12:24:50.861Z,1472.00
2022-12-08T12:25:52.888Z,1304.00
2022-12-08T12:26:54.880Z,1204.00
2022-12-08T12:27:57.472Z,1180.00
2022-12-08T12:28:58.482Z,1088.00
2022-12-08T12:30:00.523Z,940.00
2022-12-08T12:31:02.598Z,816.00
2022-12-08T12:32:04.591Z,764.00
2022-12-08T12:33:06.608Z,816.00
2022-12-08T12:34:08.613Z,884.00
2022-12-08T12:35:10.651Z,904.00
2022-12-08T12:36:12.680Z,1028.00
2022-12-08T12:37:14.712Z,1112.00
2022-12-08T12:38:16.725Z,1048.00
2022-12-08T12:39:18.744Z,976.00
2022-12-08T12:40:20.756Z,992.00
2022-12-08T12:41:25.546Z,1132.00
2022-12-08T12:42:24.454Z,1136.00
2022-12-08T12:43:26.462Z,1152.00
2022-12-08T12:44:28.483Z,1028.00
2022-12-08T12:45:30.498Z,932.00
2022-12-08T12:46:32.539Z,908.00
2022-12-08T12:47:34.516Z,952.00
2022-12-08T12:48:36.519Z,956.00
2022-12-08T12:49:38.544Z,1120.00
2022-12-08T12:50:40.547Z,1320.00
2022-12-08T12:51:42.561Z,1396.00
2022-12-08T12:52:44.562Z,1512.00
2022-12-08T12:53:46.565Z,1292.00
2022-12-08T12:54:48.570Z,1232.00
2022-12-08T12:55:50.579Z,1328.00
2022-12-08T12:56:52.629Z,1180.00
2022-12-08T12:57:54.658Z,1028.00
2022-12-08T12:58:56.658Z,932.00
2022-12-08T12:59:58.680Z,936.00
2022-12-08T13:01:00.722Z,1020.00
2022-12-08T13:02:02.785Z,1052.00
2022-12-08T13:03:04.886Z,1016.00
2022-12-08T13:04:06.877Z,984.00
2022-12-08T13:05:08.876Z,952.00
2022-12-08T13:06:14.393Z,896.00
2022-12-08T13:07:12.586Z,872.00
2022-12-08T13:08:14.647Z,1024.00
2022-12-08T13:09:16.628Z,1108.00
2022-12-08T13:10:18.653Z,1124.00
2022-12-08T13:11:20.711Z,1064.00
2022-12-08T13:12:22.701Z,1056.00
2022-12-08T13:13:24.711Z,1124.00
2022-12-08T13:14:26.732Z,1172.00
2022-12-08T13:15:28.734Z,1224.00
2022-12-08T13:16:30.812Z,1316.00
2022-12-08T13:17:32.786Z,1300.00
2022-12-08T13:18:34.809Z,1220.00
2022-12-08T13:19:36.831Z,1160.00
2022-12-08T13:20:38.831Z,1172.00
2022-12-08T13:21:40.864Z,1156.00
2022-12-08T13:22:42.838Z,1152.00
2022-12-08T13:23:44.832Z,1136.00
2022-12-08T13:24:46.849Z,1020.00
2022-12-08T13:25:48.837Z,976.00
2022-12-08T13:26:50.849Z,988.00
2022-12-08T13:27:52.848Z,1000.00
2022-12-08T13:28:54.845Z,980.00
2022-12-08T13:29:56.864Z,892.00
2022-12-08T13:30:58.901Z,880.00
2022-12-08T13:32:00.921Z,872.00
2022-12-08T13:33:17.861Z,764.00
2022-12-08T13:34:04.347Z,688.00
2022-12-08T13:35:06.345Z,644.00
2022-12-08T13:36:08.435Z,596.00
2022-12-08T13:37:10.452Z,568.00
2022-12-08T13:38:12.513Z,516.00
2022-12-08T13:39:14.550Z,496.00
2022-12-08T13:40:16.551Z,460.00
2022-12-08T13:41:18.572Z,424.00
2022-12-08T13:42:20.577Z,408.00
2022-12-08T13:43:22.574Z,416.00
2022-12-08T13:48:13.823Z,328.00
2022-12-08T13:53:10.286Z,344.00
2022-12-08T13:56:30.718Z,384.00
2022-12-08T13:57:10.466Z,400.00
2022-12-08T13:57:15.992Z,412.00
2022-12-08T13:58:10.568Z,484.00
2022-12-08T13:59:12.599Z,504.00
2022-12-08T14:00:14.625Z,452.00
2022-12-08T14:01:16.731Z,412.00
2022-12-08T14:02:18.778Z,400.00
2022-12-08T14:03:20.794Z,356.00
2022-12-08T14:04:42.471Z,316.00
2022-12-08T14:05:41.066Z,316.00
2022-12-08T14:06:25.675Z,332.00
2022-12-08T14:07:27.701Z,328.00
2022-12-08T14:08:57.413Z,336.00
2022-12-08T14:09:31.186Z,320.00
2022-12-08T14:10:33.172Z,316.00
2022-12-08T14:11:35.193Z,316.00
2022-12-08T14:12:37.191Z,296.00
2022-12-08T14:13:39.213Z,276.00
2022-12-08T14:15:42.785Z,264.00
2022-12-08T14:16:44.802Z,256.00
2022-12-08T14:17:46.821Z,240.00
2022-12-08T14:18:48.842Z,212.00
2022-12-08T14:19:50.868Z,196.00
2022-12-08T14:21:20.004Z,208.00
2022-12-08T14:21:54.290Z,196.00
2022-12-08T14:22:56.283Z,196.00
2022-12-08T14:23:58.300Z,196.00
2022-12-08T14:25:00.278Z,204.00
2022-12-08T14:26:02.274Z,212.00
2022-12-08T14:27:04.273Z,204.00
2022-12-08T14:28:06.296Z,200.00
2022-12-08T14:29:08.360Z,192.00
2022-12-08T14:30:10.333Z,212.00
2022-12-08T14:31:12.378Z,244.00
2022-12-08T14:32:14.441Z,228.00
2022-12-08T14:33:16.431Z,204.00
2022-12-08T14:34:18.452Z,188.00
2022-12-08T14:35:20.473Z,196.00
2022-12-08T14:36:22.474Z,176.00
2022-12-08T14:37:24.508Z,204.00
2022-12-08T14:38:26.603Z,204.00
2022-12-08T14:39:28.628Z,176.00
2022-12-08T14:40:30.633Z,192.00
2022-12-08T14:41:32.645Z,184.00
2022-12-08T14:42:34.662Z,164.00
2022-12-08T14:43:36.663Z,152.00
2022-12-08T14:44:38.663Z,136.00
2022-12-08T14:45:40.690Z,136.00
2022-12-08T14:46:42.803Z,136.00
2022-12-08T14:47:44.795Z,160.00
2022-12-08T14:48:46.825Z,164.00
2022-12-08T14:49:48.859Z,136.00
